Time;durP1;ratioP1;P1;durP2;ratioP2;P2;SDS_P1;SDS_P2;PMS_P1;PMS_P2;Temp;Humidity;BMP_temperature;BMP_pressure;BME280_temperature;BME280_humidity;BME280_pressure;Samples;Min_cycle;Max_cycle;Signal;HPM_P1;HPM_P2
2023/06/17 20:30:12;;;;;;;0.00;0.00;;;19.40;99.90;;;;;;5110531;27;20427;-82
2023/06/17 20:32:46;;;;;;;0.00;0.00;;;19.00;99.90;;;;;;5121790;28;20499;-83
2023/06/17 20:35:17;;;;;;;0.00;0.00;;;18.90;99.90;;;;;;5103263;28;20368;-81
2023/06/17 20:37:47;;;;;;;0.00;0.00;;;18.90;99.90;;;;;;5129025;28;20022;-82
2023/06/17 20:40:43;;;;;;;0.00;0.00;;;18.90;99.90;;;;;;5151106;27;20076;-84
2023/06/17 21:56:16;;;;;;;0.00;0.00;;;17.60;99.90;;;;;;6132280;22;20025;-81
2023/06/17 21:59:12;;;;;;;0.00;0.00;;;17.60;99.90;;;;;;5054046;28;20029;-81
2023/06/17 22:01:40;;;;;;;0.00;0.00;;;17.70;99.90;;;;;;5038776;28;20014;-81
2023/06/17 22:04:19;;;;;;;0.00;0.00;;;17.50;99.90;;;;;;5040391;28;20017;-81
2023/06/17 22:06:46;;;;;;;0.10;0.10;;;17.40;99.90;;;;;;5050574;28;20030;-81
2023/06/17 22:09:23;;;;;;;0.00;0.00;;;17.50;99.90;;;;;;5052423;28;20093;-82
2023/06/17 22:32:32;;;;;;;0.08;0.08;;;16.90;99.90;;;;;;5848920;22;20049;-81
2023/06/17 22:35:05;;;;;;;0.00;0.00;;;16.90;99.90;;;;;;5071907;28;20067;-81
2023/06/17 22:37:57;;;;;;;0.00;0.00;;;16.90;99.90;;;;;;5070789;28;20021;-80
2023/06/17 22:40:38;;;;;;;0.00;0.00;;;16.80;99.90;;;;;;5063472;28;20523;-80
2023/06/17 22:43:27;;;;;;;0.00;0.00;;;17.00;99.90;;;;;;5063802;28;20029;-81
2023/06/17 22:45:54;;;;;;;0.00;0.00;;;17.00;99.90;;;;;;5061906;28;20021;-80
2023/06/17 22:48:30;;;;;;;0.00;0.00;;;17.00;99.90;;;;;;5066177;28;20029;-81
2023/06/17 22:51:03;;;;;;;0.00;0.00;;;17.10;99.90;;;;;;5065410;28;20378;-80
2023/06/17 22:53:38;;;;;;;0.00;0.00;;;17.10;99.90;;;;;;5066091;28;20033;-82
2023/06/17 22:56:18;;;;;;;0.00;0.00;;;17.20;99.90;;;;;;5076551;28;20035;-82
2023/06/17 22:59:01;;;;;;;0.20;0.17;;;17.10;99.90;;;;;;5076403;28;20038;-82
2023/06/17 23:01:28;;;;;;;0.00;0.00;;;17.10;99.90;;;;;;5077337;28;20041;-81
2023/06/17 23:03:59;;;;;;;0.00;0.00;;;17.20;99.90;;;;;;5074528;28;20017;-80
2023/06/17 23:06:28;;;;;;;0.10;0.00;;;17.20;99.90;;;;;;5075451;28;20048;-81
2023/06/17 23:08:54;;;;;;;0.00;0.00;;;17.20;99.90;;;;;;5074041;28;20021;-81
2023/06/17 23:11:20;;;;;;;0.00;0.00;;;17.30;99.90;;;;;;5074903;28;20036;-81
2023/06/17 23:13:48;;;;;;;0.00;0.00;;;17.30;99.90;;;;;;5074722;28;20029;-81
2023/06/17 23:16:18;;;;;;;0.00;0.00;;;17.30;99.90;;;;;;5074566;28;20016;-81
2023/06/17 23:18:58;;;;;;;0.00;0.00;;;17.20;99.90;;;;;;5068686;28;20029;-81
2023/06/17 23:21:26;;;;;;;1.55;0.00;;;17.20;99.90;;;;;;5058641;28;20104;-80
2023/06/17 23:24:21;;;;;;;0.00;0.00;;;17.10;99.90;;;;;;5056499;28;20481;-80
2023/06/17 23:26:57;;;;;;;0.00;0.00;;;17.00;99.90;;;;;;5051730;28;20021;-80
2023/06/17 23:29:23;;;;;;;0.00;0.00;;;16.90;99.90;;;;;;5047755;28;20028;-80
2023/06/17 23:31:50;;;;;;;0.00;0.00;;;16.80;99.90;;;;;;5037086;28;20298;-80
2023/06/17 23:34:25;;;;;;;0.00;0.00;;;16.70;99.90;;;;;;5058697;28;20351;-80
2023/06/17 23:36:54;;;;;;;0.00;0.00;;;16.70;99.90;;;;;;5056236;28;20032;-81
2023/06/17 23:39:20;;;;;;;0.00;0.00;;;16.70;99.90;;;;;;5042551;28;20020;-80
2023/06/17 23:41:47;;;;;;;0.00;0.00;;;16.60;99.90;;;;;;5043773;28;20014;-80
2023/06/17 23:44:13;;;;;;;0.00;0.00;;;16.60;99.90;;;;;;5042262;28;20021;-80
2023/06/17 23:46:43;;;;;;;0.00;0.00;;;16.60;99.90;;;;;;5040326;28;20068;-80
2023/06/17 23:49:10;;;;;;;0.00;0.00;;;16.60;99.90;;;;;;5039970;28;20084;-80
2023/06/17 23:51:42;;;;;;;0.00;0.00;;;16.60;99.90;;;;;;5052535;28;20084;-82
2023/06/17 23:54:08;;;;;;;0.00;0.00;;;16.60;99.90;;;;;;5072367;28;20025;-82
2023/06/17 23:56:42;;;;;;;0.00;0.00;;;16.60;99.90;;;;;;5065448;28;20013;-82
2023/06/17 23:59:13;;;;;;;0.00;0.00;;;16.60;99.90;;;;;;5059667;28;20037;-81
